sensor_id;sensor_type;location;lat;lon;timestamp;temperature;humidity
5210;DHT22;2624;48.048;11.706;2023-06-26T00:00:47;19.10;94.90
5210;DHT22;2624;48.048;11.706;2023-06-26T00:05:50;19.00;95.10
5210;DHT22;2624;48.048;11.706;2023-06-26T00:10:52;19.00;94.90
5210;DHT22;2624;48.048;11.706;2023-06-26T00:15:54;19.00;94.80
5210;DHT22;2624;48.048;11.706;2023-06-26T00:20:57;19.00;94.70
5210;DHT22;2624;48.048;11.706;2023-06-26T00:25:58;18.90;94.40
5210;DHT22;2624;48.048;11.706;2023-06-26T00:31:01;18.80;94.20
5210;DHT22;2624;48.048;11.706;2023-06-26T00:36:05;18.80;94.40
5210;DHT22;2624;48.048;11.706;2023-06-26T00:41:06;18.90;94.20
5210;DHT22;2624;48.048;11.706;2023-06-26T00:46:13;19.00;93.60
5210;DHT22;2624;48.048;11.706;2023-06-26T00:51:17;18.90;93.50
5210;DHT22;2624;48.048;11.706;2023-06-26T00:56:20;18.70;93.70
5210;DHT22;2624;48.048;11.706;2023-06-26T01:01:22;18.80;93.50
5210;DHT22;2624;48.048;11.706;2023-06-26T01:06:28;18.50;93.80
5210;DHT22;2624;48.048;11.706;2023-06-26T01:11:32;18.60;93.50
5210;DHT22;2624;48.048;11.706;2023-06-26T01:16:34;18.70;94.00
5210;DHT22;2624;48.048;11.706;2023-06-26T01:21:42;18.60;93.80
5210;DHT22;2624;48.048;11.706;2023-06-26T01:26:46;18.40;94.00
5210;DHT22;2624;48.048;11.706;2023-06-26T01:31:49;18.30;94.30
5210;DHT22;2624;48.048;11.706;2023-06-26T01:36:51;18.30;94.20
5210;DHT22;2624;48.048;11.706;2023-06-26T01:41:54;18.60;94.00
5210;DHT22;2624;48.048;11.706;2023-06-26T01:47:00;18.60;94.00
5210;DHT22;2624;48.048;11.706;2023-06-26T01:52:07;18.20;93.90
5210;DHT22;2624;48.048;11.706;2023-06-26T01:57:11;18.00;94.40
5210;DHT22;2624;48.048;11.706;2023-06-26T02:02:13;18.10;94.10
5210;DHT22;2624;48.048;11.706;2023-06-26T02:07:15;18.00;94.30
5210;DHT22;2624;48.048;11.706;2023-06-26T02:12:18;17.90;94.20
5210;DHT22;2624;48.048;11.706;2023-06-26T02:17:20;17.70;94.70
5210;DHT22;2624;48.048;11.706;2023-06-26T02:22:22;17.60;94.60
5210;DHT22;2624;48.048;11.706;2023-06-26T02:27:25;17.60;94.90
5210;DHT22;2624;48.048;11.706;2023-06-26T02:32:27;17.70;94.50
5210;DHT22;2624;48.048;11.706;2023-06-26T02:37:30;17.70;94.60
5210;DHT22;2624;48.048;11.706;2023-06-26T02:42:34;17.60;94.80
5210;DHT22;2624;48.048;11.706;2023-06-26T02:47:36;17.30;94.90
5210;DHT22;2624;48.048;11.706;2023-06-26T02:52:39;17.50;94.40
5210;DHT22;2624;48.048;11.706;2023-06-26T02:57:43;17.40;94.70
5210;DHT22;2624;48.048;11.706;2023-06-26T03:02:44;17.30;95.10
5210;DHT22;2624;48.048;11.706;2023-06-26T03:07:46;17.30;95.00
5210;DHT22;2624;48.048;11.706;2023-06-26T03:12:49;17.40;94.90
5210;DHT22;2624;48.048;11.706;2023-06-26T03:17:51;17.30;94.80
5210;DHT22;2624;48.048;11.706;2023-06-26T03:22:53;17.30;94.90
5210;DHT22;2624;48.048;11.706;2023-06-26T03:27:56;17.20;94.90
5210;DHT22;2624;48.048;11.706;2023-06-26T03:32:58;17.10;95.00
5210;DHT22;2624;48.048;11.706;2023-06-26T03:37:59;17.40;95.20
5210;DHT22;2624;48.048;11.706;2023-06-26T03:43:03;17.30;94.80
5210;DHT22;2624;48.048;11.706;2023-06-26T03:48:04;17.30;94.80
5210;DHT22;2624;48.048;11.706;2023-06-26T03:53:08;17.30;94.90
5210;DHT22;2624;48.048;11.706;2023-06-26T03:58:11;17.50;95.10
5210;DHT22;2624;48.048;11.706;2023-06-26T04:03:13;17.60;94.60
5210;DHT22;2624;48.048;11.706;2023-06-26T04:08:15;17.20;94.90
5210;DHT22;2624;48.048;11.706;2023-06-26T04:13:18;17.10;95.10
5210;DHT22;2624;48.048;11.706;2023-06-26T04:18:19;17.10;95.30
5210;DHT22;2624;48.048;11.706;2023-06-26T04:23:21;17.10;95.40
5210;DHT22;2624;48.048;11.706;2023-06-26T04:28:24;17.10;95.50
5210;DHT22;2624;48.048;11.706;2023-06-26T04:33:26;17.10;95.50
5210;DHT22;2624;48.048;11.706;2023-06-26T04:38:28;17.50;95.10
5210;DHT22;2624;48.048;11.706;2023-06-26T04:43:31;17.40;95.40
5210;DHT22;2624;48.048;11.706;2023-06-26T04:48:33;17.70;95.10
5210;DHT22;2624;48.048;11.706;2023-06-26T04:53:35;17.60;95.20
5210;DHT22;2624;48.048;11.706;2023-06-26T04:58:38;17.60;95.30
5210;DHT22;2624;48.048;11.706;2023-06-26T05:03:40;17.60;95.90
5210;DHT22;2624;48.048;11.706;2023-06-26T05:08:41;17.40;96.70
5210;DHT22;2624;48.048;11.706;2023-06-26T05:13:44;17.40;96.70
5210;DHT22;2624;48.048;11.706;2023-06-26T05:18:46;17.40;96.50
5210;DHT22;2624;48.048;11.706;2023-06-26T05:23:49;17.60;97.10
5210;DHT22;2624;48.048;11.706;2023-06-26T05:28:54;17.60;97.40
5210;DHT22;2624;48.048;11.706;2023-06-26T05:33:58;17.60;98.00
5210;DHT22;2624;48.048;11.706;2023-06-26T05:39:01;17.80;98.00
5210;DHT22;2624;48.048;11.706;2023-06-26T05:44:05;17.80;98.70
5210;DHT22;2624;48.048;11.706;2023-06-26T05:49:07;18.00;98.10
5210;DHT22;2624;48.048;11.706;2023-06-26T05:54:09;18.10;97.80
5210;DHT22;2624;48.048;11.706;2023-06-26T05:59:15;18.20;97.30
5210;DHT22;2624;48.048;11.706;2023-06-26T06:04:18;18.40;95.80
5210;DHT22;2624;48.048;11.706;2023-06-26T06:09:20;18.40;96.60
5210;DHT22;2624;48.048;11.706;2023-06-26T06:14:23;18.60;95.70
5210;DHT22;2624;48.048;11.706;2023-06-26T06:19:25;18.60;97.70
5210;DHT22;2624;48.048;11.706;2023-06-26T06:24:26;18.80;98.20
5210;DHT22;2624;48.048;11.706;2023-06-26T06:29:29;18.90;97.50
5210;DHT22;2624;48.048;11.706;2023-06-26T06:34:31;19.00;98.70
5210;DHT22;2624;48.048;11.706;2023-06-26T06:39:33;19.10;98.60
5210;DHT22;2624;48.048;11.706;2023-06-26T06:44:36;19.20;97.50
5210;DHT22;2624;48.048;11.706;2023-06-26T06:49:38;19.20;96.10
5210;DHT22;2624;48.048;11.706;2023-06-26T06:54:51;19.40;95.60
5210;DHT22;2624;48.048;11.706;2023-06-26T06:59:55;19.40;95.30
5210;DHT22;2624;48.048;11.706;2023-06-26T07:04:57;19.50;95.20
5210;DHT22;2624;48.048;11.706;2023-06-26T07:09:59;19.60;95.20
5210;DHT22;2624;48.048;11.706;2023-06-26T07:15:04;19.70;95.40
5210;DHT22;2624;48.048;11.706;2023-06-26T07:20:06;19.90;95.30
5210;DHT22;2624;48.048;11.706;2023-06-26T07:25:08;19.90;94.70
5210;DHT22;2624;48.048;11.706;2023-06-26T07:30:12;19.90;94.60
5210;DHT22;2624;48.048;11.706;2023-06-26T07:35:14;20.00;94.70
5210;DHT22;2624;48.048;11.706;2023-06-26T07:40:16;20.20;94.20
5210;DHT22;2624;48.048;11.706;2023-06-26T07:45:20;20.20;94.00
5210;DHT22;2624;48.048;11.706;2023-06-26T07:50:21;20.20;94.10
5210;DHT22;2624;48.048;11.706;2023-06-26T07:55:24;20.40;94.70
5210;DHT22;2624;48.048;11.706;2023-06-26T08:00:28;20.40;96.10
5210;DHT22;2624;48.048;11.706;2023-06-26T08:05:29;20.40;94.40
5210;DHT22;2624;48.048;11.706;2023-06-26T08:10:31;20.60;94.60
5210;DHT22;2624;48.048;11.706;2023-06-26T08:15:34;20.60;94.30
5210;DHT22;2624;48.048;11.706;2023-06-26T08:20:36;20.70;94.80
5210;DHT22;2624;48.048;11.706;2023-06-26T08:25:38;20.50;94.40
5210;DHT22;2624;48.048;11.706;2023-06-26T08:30:41;21.00;94.40
5210;DHT22;2624;48.048;11.706;2023-06-26T08:35:43;21.00;94.60
5210;DHT22;2624;48.048;11.706;2023-06-26T08:40:44;21.60;95.20
5210;DHT22;2624;48.048;11.706;2023-06-26T08:45:48;21.20;94.90
5210;DHT22;2624;48.048;11.706;2023-06-26T08:50:53;21.90;93.60
5210;DHT22;2624;48.048;11.706;2023-06-26T08:55:57;21.70;93.90
5210;DHT22;2624;48.048;11.706;2023-06-26T09:01:01;21.50;94.10
5210;DHT22;2624;48.048;11.706;2023-06-26T09:06:04;21.60;93.80
5210;DHT22;2624;48.048;11.706;2023-06-26T09:11:05;21.90;92.90
5210;DHT22;2624;48.048;11.706;2023-06-26T09:16:09;21.40;92.80
5210;DHT22;2624;48.048;11.706;2023-06-26T09:21:11;22.20;92.20
5210;DHT22;2624;48.048;11.706;2023-06-26T09:26:14;23.00;91.00
5210;DHT22;2624;48.048;11.706;2023-06-26T09:31:17;22.30;92.50
5210;DHT22;2624;48.048;11.706;2023-06-26T09:36:21;23.20;90.50
5210;DHT22;2624;48.048;11.706;2023-06-26T09:41:25;23.40;90.00
5210;DHT22;2624;48.048;11.706;2023-06-26T09:46:30;23.00;92.40
5210;DHT22;2624;48.048;11.706;2023-06-26T09:51:32;23.10;90.00
5210;DHT22;2624;48.048;11.706;2023-06-26T09:56:34;23.30;89.80
5210;DHT22;2624;48.048;11.706;2023-06-26T10:01:41;23.10;91.10
5210;DHT22;2624;48.048;11.706;2023-06-26T10:06:46;23.80;90.70
5210;DHT22;2624;48.048;11.706;2023-06-26T10:11:53;24.40;88.50
5210;DHT22;2624;48.048;11.706;2023-06-26T10:16:58;23.10;91.20
5210;DHT22;2624;48.048;11.706;2023-06-26T10:22:02;23.30;90.60
5210;DHT22;2624;48.048;11.706;2023-06-26T10:27:10;23.30;90.70
5210;DHT22;2624;48.048;11.706;2023-06-26T10:32:18;23.40;90.70
5210;DHT22;2624;48.048;11.706;2023-06-26T10:37:20;24.80;87.20
5210;DHT22;2624;48.048;11.706;2023-06-26T10:42:34;24.10;87.30
5210;DHT22;2624;48.048;11.706;2023-06-26T10:47:40;23.60;89.00
5210;DHT22;2624;48.048;11.706;2023-06-26T10:52:42;24.30;87.10
5210;DHT22;2624;48.048;11.706;2023-06-26T10:57:45;24.00;88.80
5210;DHT22;2624;48.048;11.706;2023-06-26T11:02:51;24.40;85.80
5210;DHT22;2624;48.048;11.706;2023-06-26T11:08:06;25.20;84.00
5210;DHT22;2624;48.048;11.706;2023-06-26T11:13:10;24.90;85.40
5210;DHT22;2624;48.048;11.706;2023-06-26T11:18:14;24.90;84.20
5210;DHT22;2624;48.048;11.706;2023-06-26T11:23:21;24.60;85.20
5210;DHT22;2624;48.048;11.706;2023-06-26T11:28:23;24.80;83.90
5210;DHT22;2624;48.048;11.706;2023-06-26T11:33:27;24.50;86.00
5210;DHT22;2624;48.048;11.706;2023-06-26T11:38:37;25.00;85.00
5210;DHT22;2624;48.048;11.706;2023-06-26T11:43:39;25.20;85.20
5210;DHT22;2624;48.048;11.706;2023-06-26T11:48:42;24.50;86.40
5210;DHT22;2624;48.048;11.706;2023-06-26T11:53:46;24.70;86.30
5210;DHT22;2624;48.048;11.706;2023-06-26T11:58:55;25.40;85.00
5210;DHT22;2624;48.048;11.706;2023-06-26T12:04:01;24.80;88.30
5210;DHT22;2624;48.048;11.706;2023-06-26T12:09:05;25.80;82.50
5210;DHT22;2624;48.048;11.706;2023-06-26T12:14:10;25.60;83.90
5210;DHT22;2624;48.048;11.706;2023-06-26T12:19:13;25.70;84.30
5210;DHT22;2624;48.048;11.706;2023-06-26T12:24:17;25.20;84.00
5210;DHT22;2624;48.048;11.706;2023-06-26T12:29:19;26.10;81.00
5210;DHT22;2624;48.048;11.706;2023-06-26T12:34:27;26.40;81.30
5210;DHT22;2624;48.048;11.706;2023-06-26T12:39:30;26.80;80.20
5210;DHT22;2624;48.048;11.706;2023-06-26T12:44:47;26.00;83.00
5210;DHT22;2624;48.048;11.706;2023-06-26T12:49:52;26.30;81.60
5210;DHT22;2624;48.048;11.706;2023-06-26T12:54:54;27.10;79.20
5210;DHT22;2624;48.048;11.706;2023-06-26T12:59:58;26.60;79.70
5210;DHT22;2624;48.048;11.706;2023-06-26T13:05:01;26.40;82.90
5210;DHT22;2624;48.048;11.706;2023-06-26T13:10:04;26.70;79.90
5210;DHT22;2624;48.048;11.706;2023-06-26T13:15:08;27.30;79.90
5210;DHT22;2624;48.048;11.706;2023-06-26T13:20:12;27.10;79.40
5210;DHT22;2624;48.048;11.706;2023-06-26T13:25:14;26.30;82.30
5210;DHT22;2624;48.048;11.706;2023-06-26T13:30:16;26.10;83.50
5210;DHT22;2624;48.048;11.706;2023-06-26T13:35:19;26.30;82.40
5210;DHT22;2624;48.048;11.706;2023-06-26T13:40:21;26.50;80.70
5210;DHT22;2624;48.048;11.706;2023-06-26T13:45:22;27.00;80.30
5210;DHT22;2624;48.048;11.706;2023-06-26T13:50:26;26.50;82.00
5210;DHT22;2624;48.048;11.706;2023-06-26T13:55:27;26.40;81.20
5210;DHT22;2624;48.048;11.706;2023-06-26T14:00:29;26.00;83.20
5210;DHT22;2624;48.048;11.706;2023-06-26T14:05:32;26.30;83.20
5210;DHT22;2624;48.048;11.706;2023-06-26T14:10:34;26.30;82.90
5210;DHT22;2624;48.048;11.706;2023-06-26T14:15:36;26.00;83.60
5210;DHT22;2624;48.048;11.706;2023-06-26T14:20:42;26.50;81.40
5210;DHT22;2624;48.048;11.706;2023-06-26T14:25:43;26.40;82.40
5210;DHT22;2624;48.048;11.706;2023-06-26T14:30:45;26.30;83.10
5210;DHT22;2624;48.048;11.706;2023-06-26T14:35:48;25.90;84.20
5210;DHT22;2624;48.048;11.706;2023-06-26T14:40:50;26.30;83.60
5210;DHT22;2624;48.048;11.706;2023-06-26T14:45:52;26.40;83.30
5210;DHT22;2624;48.048;11.706;2023-06-26T14:50:55;26.80;83.00
5210;DHT22;2624;48.048;11.706;2023-06-26T14:55:57;27.10;82.20
5210;DHT22;2624;48.048;11.706;2023-06-26T15:00:58;27.10;82.40
5210;DHT22;2624;48.048;11.706;2023-06-26T15:06:01;27.40;80.60
5210;DHT22;2624;48.048;11.706;2023-06-26T15:11:03;26.90;81.90
5210;DHT22;2624;48.048;11.706;2023-06-26T15:16:05;26.90;82.20
5210;DHT22;2624;48.048;11.706;2023-06-26T15:21:08;27.10;82.10
5210;DHT22;2624;48.048;11.706;2023-06-26T15:26:10;27.50;79.00
5210;DHT22;2624;48.048;11.706;2023-06-26T15:31:12;27.20;80.80
5210;DHT22;2624;48.048;11.706;2023-06-26T15:36:15;27.40;80.30
5210;DHT22;2624;48.048;11.706;2023-06-26T15:41:17;27.40;80.90
5210;DHT22;2624;48.048;11.706;2023-06-26T15:46:18;27.40;80.30
5210;DHT22;2624;48.048;11.706;2023-06-26T15:51:22;27.40;79.20
5210;DHT22;2624;48.048;11.706;2023-06-26T15:56:23;27.30;79.90
5210;DHT22;2624;48.048;11.706;2023-06-26T16:01:25;27.20;81.20
5210;DHT22;2624;48.048;11.706;2023-06-26T16:06:28;27.20;81.00
5210;DHT22;2624;48.048;11.706;2023-06-26T16:11:30;27.20;81.50
5210;DHT22;2624;48.048;11.706;2023-06-26T16:16:32;26.90;82.30
5210;DHT22;2624;48.048;11.706;2023-06-26T16:21:35;26.60;83.20
5210;DHT22;2624;48.048;11.706;2023-06-26T16:26:37;26.50;84.60
5210;DHT22;2624;48.048;11.706;2023-06-26T16:31:38;26.60;85.90
5210;DHT22;2624;48.048;11.706;2023-06-26T16:36:41;26.60;90.70
5210;DHT22;2624;48.048;11.706;2023-06-26T16:41:43;26.60;89.40
5210;DHT22;2624;48.048;11.706;2023-06-26T16:46:45;26.50;87.60
5210;DHT22;2624;48.048;11.706;2023-06-26T16:51:49;26.40;88.10
5210;DHT22;2624;48.048;11.706;2023-06-26T16:56:51;26.50;88.00
5210;DHT22;2624;48.048;11.706;2023-06-26T17:01:52;26.60;87.70
5210;DHT22;2624;48.048;11.706;2023-06-26T17:06:58;26.70;87.60
5210;DHT22;2624;48.048;11.706;2023-06-26T17:12:00;26.60;87.60
5210;DHT22;2624;48.048;11.706;2023-06-26T17:17:02;26.60;87.50
5210;DHT22;2624;48.048;11.706;2023-06-26T17:22:06;26.70;88.00
5210;DHT22;2624;48.048;11.706;2023-06-26T17:27:08;26.60;87.70
5210;DHT22;2624;48.048;11.706;2023-06-26T17:32:10;26.60;87.70
5210;DHT22;2624;48.048;11.706;2023-06-26T17:37:13;26.60;88.30
5210;DHT22;2624;48.048;11.706;2023-06-26T17:42:15;26.60;88.70
5210;DHT22;2624;48.048;11.706;2023-06-26T17:47:17;26.60;88.30
5210;DHT22;2624;48.048;11.706;2023-06-26T17:52:20;26.60;89.10
5210;DHT22;2624;48.048;11.706;2023-06-26T17:57:22;26.60;88.90
5210;DHT22;2624;48.048;11.706;2023-06-26T18:02:24;26.40;88.70
5210;DHT22;2624;48.048;11.706;2023-06-26T18:07:27;26.40;89.40
5210;DHT22;2624;48.048;11.706;2023-06-26T18:12:29;26.30;89.60
5210;DHT22;2624;48.048;11.706;2023-06-26T18:17:30;26.10;90.00
5210;DHT22;2624;48.048;11.706;2023-06-26T18:22:33;25.90;90.60
5210;DHT22;2624;48.048;11.706;2023-06-26T18:27:35;25.90;90.40
5210;DHT22;2624;48.048;11.706;2023-06-26T18:32:41;25.80;90.60
5210;DHT22;2624;48.048;11.706;2023-06-26T18:37:45;25.80;90.80
5210;DHT22;2624;48.048;11.706;2023-06-26T18:42:47;25.70;91.00
5210;DHT22;2624;48.048;11.706;2023-06-26T18:47:51;25.70;91.30
5210;DHT22;2624;48.048;11.706;2023-06-26T18:52:54;25.70;91.20
5210;DHT22;2624;48.048;11.706;2023-06-26T18:57:56;25.60;91.60
5210;DHT22;2624;48.048;11.706;2023-06-26T19:02:58;25.60;92.00
5210;DHT22;2624;48.048;11.706;2023-06-26T19:08:01;25.50;92.00
5210;DHT22;2624;48.048;11.706;2023-06-26T19:13:04;25.50;93.00
5210;DHT22;2624;48.048;11.706;2023-06-26T19:18:06;25.50;92.60
5210;DHT22;2624;48.048;11.706;2023-06-26T19:23:09;25.40;92.80
5210;DHT22;2624;48.048;11.706;2023-06-26T19:28:11;25.50;92.80
5210;DHT22;2624;48.048;11.706;2023-06-26T19:33:13;25.40;92.80
5210;DHT22;2624;48.048;11.706;2023-06-26T19:38:16;25.50;92.80
5210;DHT22;2624;48.048;11.706;2023-06-26T19:43:18;25.50;92.80
5210;DHT22;2624;48.048;11.706;2023-06-26T19:48:20;25.40;92.90
5210;DHT22;2624;48.048;11.706;2023-06-26T19:53:24;25.40;92.90
5210;DHT22;2624;48.048;11.706;2023-06-26T19:58:26;25.40;92.90
5210;DHT22;2624;48.048;11.706;2023-06-26T20:03:28;25.20;93.90
5210;DHT22;2624;48.048;11.706;2023-06-26T20:08:31;25.20;93.60
5210;DHT22;2624;48.048;11.706;2023-06-26T20:13:32;25.20;93.50
5210;DHT22;2624;48.048;11.706;2023-06-26T20:18:35;25.20;93.70
5210;DHT22;2624;48.048;11.706;2023-06-26T20:23:38;25.10;93.70
5210;DHT22;2624;48.048;11.706;2023-06-26T20:28:39;25.00;94.10
5210;DHT22;2624;48.048;11.706;2023-06-26T20:33:41;25.00;93.80
5210;DHT22;2624;48.048;11.706;2023-06-26T20:38:45;24.90;93.90
5210;DHT22;2624;48.048;11.706;2023-06-26T20:43:47;24.90;94.30
5210;DHT22;2624;48.048;11.706;2023-06-26T20:48:51;24.90;93.70
5210;DHT22;2624;48.048;11.706;2023-06-26T20:53:55;24.80;93.90
5210;DHT22;2624;48.048;11.706;2023-06-26T20:58:57;24.70;93.80
5210;DHT22;2624;48.048;11.706;2023-06-26T21:03:58;24.70;93.60
5210;DHT22;2624;48.048;11.706;2023-06-26T21:09:02;24.70;93.70
5210;DHT22;2624;48.048;11.706;2023-06-26T21:14:03;24.50;94.10
5210;DHT22;2624;48.048;11.706;2023-06-26T21:19:05;24.40;94.40
5210;DHT22;2624;48.048;11.706;2023-06-26T21:24:08;24.20;94.60
5210;DHT22;2624;48.048;11.706;2023-06-26T21:29:10;23.90;94.90
5210;DHT22;2624;48.048;11.706;2023-06-26T21:34:12;24.20;94.50
5210;DHT22;2624;48.048;11.706;2023-06-26T21:39:15;23.80;94.60
5210;DHT22;2624;48.048;11.706;2023-06-26T21:44:17;24.10;94.30
5210;DHT22;2624;48.048;11.706;2023-06-26T21:49:19;24.10;94.10
5210;DHT22;2624;48.048;11.706;2023-06-26T21:54:22;23.80;94.20
5210;DHT22;2624;48.048;11.706;2023-06-26T21:59:24;23.80;94.40
5210;DHT22;2624;48.048;11.706;2023-06-26T22:04:26;23.50;93.70
5210;DHT22;2624;48.048;11.706;2023-06-26T22:09:29;23.60;93.70
5210;DHT22;2624;48.048;11.706;2023-06-26T22:14:32;23.70;93.20
5210;DHT22;2624;48.048;11.706;2023-06-26T22:19:33;23.70;93.30
5210;DHT22;2624;48.048;11.706;2023-06-26T22:24:37;23.70;93.10
5210;DHT22;2624;48.048;11.706;2023-06-26T22:29:38;23.60;92.90
5210;DHT22;2624;48.048;11.706;2023-06-26T22:34:40;23.60;92.80
5210;DHT22;2624;48.048;11.706;2023-06-26T22:39:43;23.50;91.60
5210;DHT22;2624;48.048;11.706;2023-06-26T22:44:45;23.40;91.50
5210;DHT22;2624;48.048;11.706;2023-06-26T22:49:47;23.40;91.80
5210;DHT22;2624;48.048;11.706;2023-06-26T22:54:50;23.50;91.70
5210;DHT22;2624;48.048;11.706;2023-06-26T22:59:52;23.30;91.20
5210;DHT22;2624;48.048;11.706;2023-06-26T23:04:54;23.40;90.00
5210;DHT22;2624;48.048;11.706;2023-06-26T23:09:57;23.40;90.40
5210;DHT22;2624;48.048;11.706;2023-06-26T23:14:58;23.20;88.80
5210;DHT22;2624;48.048;11.706;2023-06-26T23:20:00;23.20;88.30
5210;DHT22;2624;48.048;11.706;2023-06-26T23:25:04;23.20;89.10
5210;DHT22;2624;48.048;11.706;2023-06-26T23:30:07;23.20;87.80
5210;DHT22;2624;48.048;11.706;2023-06-26T23:35:09;23.10;84.30
5210;DHT22;2624;48.048;11.706;2023-06-26T23:40:13;23.10;86.40
5210;DHT22;2624;48.048;11.706;2023-06-26T23:45:15;23.10;86.50
5210;DHT22;2624;48.048;11.706;2023-06-26T23:50:17;23.10;83.60
5210;DHT22;2624;48.048;11.706;2023-06-26T23:55:20;23.00;85.20
